sensor_id;sensor_type;location;lat;lon;timestamp;P1;durP1;ratioP1;P2;durP2;ratioP2
17872;SDS011;36318;42.620;23.338;2022-09-12T00:01:04;4.30;;;2.47;;
17872;SDS011;36318;42.620;23.338;2022-09-12T00:03:30;3.70;;;2.30;;
17872;SDS011;36318;42.620;23.338;2022-09-12T00:05:57;3.13;;;2.90;;
17872;SDS011;36318;42.620;23.338;2022-09-12T00:08:23;2.43;;;2.23;;
17872;SDS011;36318;42.620;23.338;2022-09-12T00:10:50;3.57;;;2.10;;
17872;SDS011;36318;42.620;23.338;2022-09-12T00:13:16;3.77;;;1.90;;
17872;SDS011;36318;42.620;23.338;2022-09-12T00:15:44;2.43;;;2.00;;
17872;SDS011;36318;42.620;23.338;2022-09-12T00:18:12;3.47;;;2.17;;
17872;SDS011;36318;42.620;23.338;2022-09-12T00:20:40;2.47;;;2.00;;
17872;SDS011;36318;42.620;23.338;2022-09-12T00:23:06;2.40;;;2.20;;
17872;SDS011;36318;42.620;23.338;2022-09-12T00:25:33;2.67;;;1.90;;
17872;SDS011;36318;42.620;23.338;2022-09-12T00:28:00;3.83;;;2.37;;
17872;SDS011;36318;42.620;23.338;2022-09-12T00:30:26;2.47;;;2.27;;
17872;SDS011;36318;42.620;23.338;2022-09-12T00:32:54;4.13;;;2.30;;
17872;SDS011;36318;42.620;23.338;2022-09-12T00:35:20;3.07;;;2.70;;
17872;SDS011;36318;42.620;23.338;2022-09-12T00:37:47;2.70;;;2.50;;
17872;SDS011;36318;42.620;23.338;2022-09-12T00:40:13;3.03;;;2.63;;
17872;SDS011;36318;42.620;23.338;2022-09-12T00:42:40;4.70;;;2.90;;
17872;SDS011;36318;42.620;23.338;2022-09-12T00:45:07;2.90;;;2.70;;
17872;SDS011;36318;42.620;23.338;2022-09-12T00:47:36;2.70;;;2.50;;
17872;SDS011;36318;42.620;23.338;2022-09-12T00:50:06;3.70;;;2.73;;
17872;SDS011;36318;42.620;23.338;2022-09-12T00:52:34;4.07;;;2.63;;
17872;SDS011;36318;42.620;23.338;2022-09-12T00:55:02;2.93;;;2.57;;
17872;SDS011;36318;42.620;23.338;2022-09-12T00:57:31;2.00;;;1.77;;
17872;SDS011;36318;42.620;23.338;2022-09-12T01:00:00;2.67;;;2.47;;
17872;SDS011;36318;42.620;23.338;2022-09-12T01:02:29;2.17;;;1.80;;
17872;SDS011;36318;42.620;23.338;2022-09-12T01:04:56;1.93;;;1.80;;
17872;SDS011;36318;42.620;23.338;2022-09-12T01:07:24;2.23;;;1.80;;
17872;SDS011;36318;42.620;23.338;2022-09-12T01:09:51;2.67;;;1.80;;
17872;SDS011;36318;42.620;23.338;2022-09-12T01:12:17;2.73;;;1.60;;
17872;SDS011;36318;42.620;23.338;2022-09-12T01:14:44;1.60;;;1.50;;
17872;SDS011;36318;42.620;23.338;2022-09-12T01:17:11;1.50;;;1.40;;
17872;SDS011;36318;42.620;23.338;2022-09-12T01:19:47;1.73;;;1.50;;
17872;SDS011;36318;42.620;23.338;2022-09-12T01:22:20;1.80;;;1.50;;
17872;SDS011;36318;42.620;23.338;2022-09-12T01:24:53;3.47;;;1.53;;
17872;SDS011;36318;42.620;23.338;2022-09-12T01:27:38;3.83;;;1.70;;
17872;SDS011;36318;42.620;23.338;2022-09-12T01:32:58;2.30;;;1.80;;
17872;SDS011;36318;42.620;23.338;2022-09-12T01:35:28;1.90;;;1.80;;
17872;SDS011;36318;42.620;23.338;2022-09-12T01:37:58;2.70;;;1.60;;
17872;SDS011;36318;42.620;23.338;2022-09-12T01:40:29;2.37;;;1.70;;
17872;SDS011;36318;42.620;23.338;2022-09-12T01:43:01;1.90;;;1.70;;
17872;SDS011;36318;42.620;23.338;2022-09-12T01:45:31;2.73;;;1.77;;
17872;SDS011;36318;42.620;23.338;2022-09-12T01:48:01;1.77;;;1.50;;
17872;SDS011;36318;42.620;23.338;2022-09-12T01:50:31;1.47;;;1.37;;
17872;SDS011;36318;42.620;23.338;2022-09-12T01:52:59;1.57;;;1.37;;
17872;SDS011;36318;42.620;23.338;2022-09-12T01:55:28;1.60;;;1.50;;
17872;SDS011;36318;42.620;23.338;2022-09-12T01:57:56;2.10;;;1.40;;
17872;SDS011;36318;42.620;23.338;2022-09-12T02:00:24;2.23;;;1.40;;
17872;SDS011;36318;42.620;23.338;2022-09-12T02:02:52;2.40;;;1.37;;
17872;SDS011;36318;42.620;23.338;2022-09-12T02:05:24;1.70;;;1.40;;
17872;SDS011;36318;42.620;23.338;2022-09-12T02:07:53;1.70;;;1.60;;
17872;SDS011;36318;42.620;23.338;2022-09-12T02:10:22;3.07;;;1.43;;
17872;SDS011;36318;42.620;23.338;2022-09-12T02:12:52;1.63;;;1.33;;
17872;SDS011;36318;42.620;23.338;2022-09-12T02:15:21;1.87;;;1.37;;
17872;SDS011;36318;42.620;23.338;2022-09-12T02:17:49;1.67;;;1.40;;
17872;SDS011;36318;42.620;23.338;2022-09-12T02:20:16;2.50;;;1.23;;
17872;SDS011;36318;42.620;23.338;2022-09-12T02:22:45;2.50;;;1.30;;
17872;SDS011;36318;42.620;23.338;2022-09-12T02:25:14;1.50;;;1.40;;
17872;SDS011;36318;42.620;23.338;2022-09-12T02:27:43;2.40;;;1.60;;
17872;SDS011;36318;42.620;23.338;2022-09-12T02:30:11;1.53;;;1.10;;
17872;SDS011;36318;42.620;23.338;2022-09-12T02:32:42;1.50;;;1.40;;
17872;SDS011;36318;42.620;23.338;2022-09-12T02:35:12;1.60;;;1.40;;
17872;SDS011;36318;42.620;23.338;2022-09-12T02:37:47;2.10;;;1.53;;
17872;SDS011;36318;42.620;23.338;2022-09-12T02:40:18;1.80;;;1.53;;
17872;SDS011;36318;42.620;23.338;2022-09-12T02:42:44;1.30;;;1.20;;
17872;SDS011;36318;42.620;23.338;2022-09-12T02:45:11;1.77;;;1.10;;
17872;SDS011;36318;42.620;23.338;2022-09-12T02:47:38;1.93;;;1.33;;
17872;SDS011;36318;42.620;23.338;2022-09-12T02:50:07;2.33;;;1.30;;
17872;SDS011;36318;42.620;23.338;2022-09-12T02:52:34;1.67;;;1.30;;
17872;SDS011;36318;42.620;23.338;2022-09-12T02:55:02;2.03;;;1.70;;
17872;SDS011;36318;42.620;23.338;2022-09-12T02:57:30;2.80;;;1.70;;
17872;SDS011;36318;42.620;23.338;2022-09-12T02:59:57;1.53;;;1.43;;
17872;SDS011;36318;42.620;23.338;2022-09-12T03:02:26;2.00;;;1.80;;
17872;SDS011;36318;42.620;23.338;2022-09-12T03:04:58;3.00;;;1.90;;
17872;SDS011;36318;42.620;23.338;2022-09-12T03:07:33;2.27;;;1.40;;
17872;SDS011;36318;42.620;23.338;2022-09-12T03:10:09;3.20;;;1.77;;
17872;SDS011;36318;42.620;23.338;2022-09-12T03:12:44;1.80;;;1.70;;
17872;SDS011;36318;42.620;23.338;2022-09-12T03:15:15;2.53;;;1.80;;
17872;SDS011;36318;42.620;23.338;2022-09-12T03:17:48;4.80;;;2.00;;
17872;SDS011;36318;42.620;23.338;2022-09-12T03:20:19;3.93;;;1.80;;
17872;SDS011;36318;42.620;23.338;2022-09-12T03:22:50;3.60;;;2.00;;
17872;SDS011;36318;42.620;23.338;2022-09-12T03:25:20;3.00;;;2.40;;
17872;SDS011;36318;42.620;23.338;2022-09-12T03:27:50;3.90;;;2.10;;
17872;SDS011;36318;42.620;23.338;2022-09-12T03:30:18;4.20;;;2.30;;
17872;SDS011;36318;42.620;23.338;2022-09-12T03:32:46;4.43;;;2.53;;
17872;SDS011;36318;42.620;23.338;2022-09-12T03:35:13;2.63;;;2.00;;
17872;SDS011;36318;42.620;23.338;2022-09-12T03:37:40;3.07;;;2.67;;
17872;SDS011;36318;42.620;23.338;2022-09-12T03:40:07;3.57;;;2.10;;
17872;SDS011;36318;42.620;23.338;2022-09-12T03:42:35;2.87;;;2.13;;
17872;SDS011;36318;42.620;23.338;2022-09-12T03:45:02;4.63;;;2.13;;
17872;SDS011;36318;42.620;23.338;2022-09-12T03:47:29;2.70;;;2.50;;
17872;SDS011;36318;42.620;23.338;2022-09-12T03:49:55;2.67;;;2.47;;
17872;SDS011;36318;42.620;23.338;2022-09-12T03:52:22;3.80;;;2.73;;
17872;SDS011;36318;42.620;23.338;2022-09-12T03:54:48;6.07;;;2.93;;
17872;SDS011;36318;42.620;23.338;2022-09-12T03:57:15;4.43;;;2.97;;
17872;SDS011;36318;42.620;23.338;2022-09-12T03:59:43;3.43;;;2.60;;
17872;SDS011;36318;42.620;23.338;2022-09-12T04:02:09;3.50;;;3.20;;
17872;SDS011;36318;42.620;23.338;2022-09-12T04:04:39;3.87;;;3.57;;
17872;SDS011;36318;42.620;23.338;2022-09-12T04:07:06;4.37;;;3.97;;
17872;SDS011;36318;42.620;23.338;2022-09-12T04:09:33;4.80;;;4.40;;
17872;SDS011;36318;42.620;23.338;2022-09-12T04:11:59;4.70;;;4.30;;
17872;SDS011;36318;42.620;23.338;2022-09-12T04:14:26;4.80;;;4.30;;
17872;SDS011;36318;42.620;23.338;2022-09-12T04:16:54;6.73;;;4.70;;
17872;SDS011;36318;42.620;23.338;2022-09-12T04:19:20;5.43;;;4.93;;
17872;SDS011;36318;42.620;23.338;2022-09-12T04:21:47;5.77;;;5.10;;
17872;SDS011;36318;42.620;23.338;2022-09-12T04:24:14;5.30;;;4.80;;
17872;SDS011;36318;42.620;23.338;2022-09-12T04:26:40;6.67;;;5.30;;
17872;SDS011;36318;42.620;23.338;2022-09-12T04:29:08;6.60;;;5.27;;
17872;SDS011;36318;42.620;23.338;2022-09-12T04:31:35;6.10;;;5.50;;
17872;SDS011;36318;42.620;23.338;2022-09-12T04:34:02;7.43;;;5.60;;
17872;SDS011;36318;42.620;23.338;2022-09-12T04:36:30;5.53;;;5.07;;
17872;SDS011;36318;42.620;23.338;2022-09-12T04:38:58;6.10;;;5.60;;
17872;SDS011;36318;42.620;23.338;2022-09-12T04:41:26;7.27;;;4.83;;
17872;SDS011;36318;42.620;23.338;2022-09-12T04:43:53;5.93;;;4.57;;
17872;SDS011;36318;42.620;23.338;2022-09-12T04:46:22;5.37;;;4.90;;
17872;SDS011;36318;42.620;23.338;2022-09-12T04:48:49;5.40;;;5.00;;
17872;SDS011;36318;42.620;23.338;2022-09-12T04:51:19;5.10;;;4.60;;
17872;SDS011;36318;42.620;23.338;2022-09-12T04:53:46;5.03;;;4.30;;
17872;SDS011;36318;42.620;23.338;2022-09-12T04:56:13;6.63;;;4.30;;
17872;SDS011;36318;42.620;23.338;2022-09-12T04:58:40;7.53;;;4.03;;
17872;SDS011;36318;42.620;23.338;2022-09-12T05:01:06;5.03;;;3.90;;
17872;SDS011;36318;42.620;23.338;2022-09-12T05:03:33;6.23;;;3.90;;
17872;SDS011;36318;42.620;23.338;2022-09-12T05:06:03;4.63;;;4.23;;
17872;SDS011;36318;42.620;23.338;2022-09-12T05:08:31;5.10;;;4.70;;
17872;SDS011;36318;42.620;23.338;2022-09-12T05:11:00;4.53;;;3.77;;
17872;SDS011;36318;42.620;23.338;2022-09-12T05:13:28;4.77;;;4.30;;
17872;SDS011;36318;42.620;23.338;2022-09-12T05:15:55;3.80;;;3.50;;
17872;SDS011;36318;42.620;23.338;2022-09-12T05:18:22;7.83;;;3.60;;
17872;SDS011;36318;42.620;23.338;2022-09-12T05:21:09;4.10;;;3.70;;
17872;SDS011;36318;42.620;23.338;2022-09-12T05:23:56;6.47;;;3.30;;
17872;SDS011;36318;42.620;23.338;2022-09-12T05:26:23;4.57;;;3.60;;
17872;SDS011;36318;42.620;23.338;2022-09-12T05:29:09;4.23;;;3.83;;
17872;SDS011;36318;42.620;23.338;2022-09-12T05:31:37;3.63;;;3.17;;
17872;SDS011;36318;42.620;23.338;2022-09-12T05:34:04;4.17;;;3.03;;
17872;SDS011;36318;42.620;23.338;2022-09-12T05:36:31;7.00;;;3.70;;
17872;SDS011;36318;42.620;23.338;2022-09-12T05:38:59;4.30;;;3.90;;
17872;SDS011;36318;42.620;23.338;2022-09-12T05:41:26;4.80;;;3.80;;
17872;SDS011;36318;42.620;23.338;2022-09-12T05:43:54;4.40;;;4.00;;
17872;SDS011;36318;42.620;23.338;2022-09-12T05:46:21;5.47;;;3.80;;
17872;SDS011;36318;42.620;23.338;2022-09-12T05:48:48;3.67;;;3.37;;
17872;SDS011;36318;42.620;23.338;2022-09-12T05:51:15;4.27;;;3.87;;
17872;SDS011;36318;42.620;23.338;2022-09-12T05:53:44;4.87;;;3.83;;
17872;SDS011;36318;42.620;23.338;2022-09-12T05:56:12;4.40;;;4.07;;
17872;SDS011;36318;42.620;23.338;2022-09-12T05:58:39;4.50;;;4.10;;
17872;SDS011;36318;42.620;23.338;2022-09-12T06:01:07;4.23;;;3.93;;
17872;SDS011;36318;42.620;23.338;2022-09-12T06:03:35;4.53;;;4.17;;
17872;SDS011;36318;42.620;23.338;2022-09-12T06:06:02;4.50;;;4.20;;
17872;SDS011;36318;42.620;23.338;2022-09-12T06:08:29;4.43;;;3.97;;
17872;SDS011;36318;42.620;23.338;2022-09-12T06:10:59;3.33;;;3.10;;
17872;SDS011;36318;42.620;23.338;2022-09-12T06:13:27;3.37;;;3.17;;
17872;SDS011;36318;42.620;23.338;2022-09-12T06:16:01;3.67;;;3.13;;
17872;SDS011;36318;42.620;23.338;2022-09-12T06:18:28;2.60;;;2.40;;
17872;SDS011;36318;42.620;23.338;2022-09-12T06:20:54;3.43;;;2.50;;
17872;SDS011;36318;42.620;23.338;2022-09-12T06:23:21;2.40;;;2.20;;
17872;SDS011;36318;42.620;23.338;2022-09-12T06:25:47;2.57;;;2.37;;
17872;SDS011;36318;42.620;23.338;2022-09-12T06:28:14;2.70;;;2.50;;
17872;SDS011;36318;42.620;23.338;2022-09-12T06:30:42;3.23;;;2.20;;
17872;SDS011;36318;42.620;23.338;2022-09-12T06:33:08;2.23;;;2.13;;
17872;SDS011;36318;42.620;23.338;2022-09-12T06:35:35;2.67;;;2.23;;
17872;SDS011;36318;42.620;23.338;2022-09-12T06:38:02;3.60;;;2.30;;
17872;SDS011;36318;42.620;23.338;2022-09-12T06:40:29;2.63;;;2.43;;
17872;SDS011;36318;42.620;23.338;2022-09-12T06:42:55;3.83;;;2.23;;
17872;SDS011;36318;42.620;23.338;2022-09-12T06:45:22;2.47;;;1.83;;
17872;SDS011;36318;42.620;23.338;2022-09-12T06:47:51;2.40;;;2.20;;
17872;SDS011;36318;42.620;23.338;2022-09-12T06:50:18;9.10;;;2.40;;
17872;SDS011;36318;42.620;23.338;2022-09-12T06:52:44;4.67;;;2.23;;
17872;SDS011;36318;42.620;23.338;2022-09-12T06:55:13;2.17;;;2.00;;
17872;SDS011;36318;42.620;23.338;2022-09-12T06:57:40;3.90;;;2.50;;
17872;SDS011;36318;42.620;23.338;2022-09-12T07:00:07;2.20;;;2.00;;
17872;SDS011;36318;42.620;23.338;2022-09-12T07:02:34;2.10;;;2.00;;
17872;SDS011;36318;42.620;23.338;2022-09-12T07:05:02;2.73;;;2.13;;
17872;SDS011;36318;42.620;23.338;2022-09-12T07:07:29;2.83;;;2.47;;
17872;SDS011;36318;42.620;23.338;2022-09-12T07:09:58;7.03;;;2.30;;
17872;SDS011;36318;42.620;23.338;2022-09-12T07:12:26;5.60;;;2.20;;
17872;SDS011;36318;42.620;23.338;2022-09-12T07:14:52;3.30;;;2.40;;
17872;SDS011;36318;42.620;23.338;2022-09-12T07:17:19;2.10;;;2.00;;
17872;SDS011;36318;42.620;23.338;2022-09-12T07:19:45;3.50;;;2.47;;
17872;SDS011;36318;42.620;23.338;2022-09-12T07:22:14;2.80;;;2.53;;
17872;SDS011;36318;42.620;23.338;2022-09-12T07:24:40;2.73;;;2.50;;
17872;SDS011;36318;42.620;23.338;2022-09-12T07:27:07;2.60;;;2.40;;
17872;SDS011;36318;42.620;23.338;2022-09-12T07:29:34;4.03;;;2.33;;
17872;SDS011;36318;42.620;23.338;2022-09-12T07:32:00;2.30;;;2.20;;
17872;SDS011;36318;42.620;23.338;2022-09-12T07:34:27;5.33;;;2.67;;
17872;SDS011;36318;42.620;23.338;2022-09-12T07:36:53;2.47;;;2.27;;
17872;SDS011;36318;42.620;23.338;2022-09-12T07:39:21;2.77;;;2.57;;
17872;SDS011;36318;42.620;23.338;2022-09-12T07:41:48;4.37;;;2.73;;
17872;SDS011;36318;42.620;23.338;2022-09-12T07:44:14;4.43;;;3.07;;
17872;SDS011;36318;42.620;23.338;2022-09-12T07:46:41;2.80;;;2.60;;
17872;SDS011;36318;42.620;23.338;2022-09-12T07:49:08;4.70;;;2.90;;
17872;SDS011;36318;42.620;23.338;2022-09-12T07:51:34;2.90;;;2.70;;
17872;SDS011;36318;42.620;23.338;2022-09-12T07:54:01;2.73;;;2.53;;
17872;SDS011;36318;42.620;23.338;2022-09-12T07:56:34;3.27;;;2.90;;
17872;SDS011;36318;42.620;23.338;2022-09-12T07:59:01;2.73;;;2.53;;
17872;SDS011;36318;42.620;23.338;2022-09-12T08:01:28;3.27;;;3.00;;
17872;SDS011;36318;42.620;23.338;2022-09-12T08:03:55;3.10;;;2.90;;
17872;SDS011;36318;42.620;23.338;2022-09-12T08:06:22;6.03;;;3.23;;
17872;SDS011;36318;42.620;23.338;2022-09-12T08:08:49;3.80;;;3.00;;
17872;SDS011;36318;42.620;23.338;2022-09-12T08:11:16;2.40;;;2.20;;
17872;SDS011;36318;42.620;23.338;2022-09-12T08:13:45;2.55;;;2.35;;
17872;SDS011;36318;42.620;23.338;2022-09-12T08:16:12;3.10;;;2.90;;
17872;SDS011;36318;42.620;23.338;2022-09-12T08:18:39;2.40;;;2.20;;
17872;SDS011;36318;42.620;23.338;2022-09-12T08:21:06;2.00;;;1.90;;
17872;SDS011;36318;42.620;23.338;2022-09-12T08:23:33;2.08;;;1.90;;
17872;SDS011;36318;42.620;23.338;2022-09-12T08:26:00;2.10;;;2.00;;
17872;SDS011;36318;42.620;23.338;2022-09-12T08:28:28;1.98;;;1.80;;
17872;SDS011;36318;42.620;23.338;2022-09-12T08:31:00;1.90;;;1.77;;
17872;SDS011;36318;42.620;23.338;2022-09-12T08:33:27;1.60;;;1.50;;
17872;SDS011;36318;42.620;23.338;2022-09-12T08:36:01;2.08;;;1.70;;
17872;SDS011;36318;42.620;23.338;2022-09-12T08:38:28;1.70;;;1.60;;
17872;SDS011;36318;42.620;23.338;2022-09-12T08:40:57;1.70;;;1.60;;
17872;SDS011;36318;42.620;23.338;2022-09-12T08:43:28;1.60;;;1.50;;
17872;SDS011;36318;42.620;23.338;2022-09-12T08:45:58;1.70;;;1.50;;
17872;SDS011;36318;42.620;23.338;2022-09-12T08:48:28;2.53;;;2.03;;
17872;SDS011;36318;42.620;23.338;2022-09-12T08:50:55;2.55;;;1.83;;
17872;SDS011;36318;42.620;23.338;2022-09-12T08:53:22;3.17;;;1.80;;
17872;SDS011;36318;42.620;23.338;2022-09-12T08:55:51;1.83;;;1.73;;
17872;SDS011;36318;42.620;23.338;2022-09-12T08:58:19;1.73;;;1.63;;
17872;SDS011;36318;42.620;23.338;2022-09-12T09:00:48;4.67;;;2.10;;
17872;SDS011;36318;42.620;23.338;2022-09-12T09:06:11;2.47;;;2.00;;
17872;SDS011;36318;42.620;23.338;2022-09-12T09:08:43;2.07;;;1.97;;
17872;SDS011;36318;42.620;23.338;2022-09-12T09:11:17;2.33;;;2.20;;
17872;SDS011;36318;42.620;23.338;2022-09-12T09:13:50;2.83;;;2.63;;
17872;SDS011;36318;42.620;23.338;2022-09-12T09:16:37;2.63;;;2.43;;
17872;SDS011;36318;42.620;23.338;2022-09-12T09:19:05;3.00;;;2.50;;
17872;SDS011;36318;42.620;23.338;2022-09-12T09:21:36;3.60;;;2.77;;
17872;SDS011;36318;42.620;23.338;2022-09-12T09:24:07;2.50;;;2.30;;
17872;SDS011;36318;42.620;23.338;2022-09-12T09:26:38;3.03;;;2.70;;
17872;SDS011;36318;42.620;23.338;2022-09-12T09:29:09;2.83;;;2.63;;
17872;SDS011;36318;42.620;23.338;2022-09-12T09:31:37;2.67;;;2.47;;
17872;SDS011;36318;42.620;23.338;2022-09-12T09:34:05;2.57;;;2.47;;
17872;SDS011;36318;42.620;23.338;2022-09-12T09:36:38;3.00;;;2.80;;
17872;SDS011;36318;42.620;23.338;2022-09-12T09:39:08;2.90;;;2.70;;
17872;SDS011;36318;42.620;23.338;2022-09-12T09:41:41;2.67;;;2.47;;
17872;SDS011;36318;42.620;23.338;2022-09-12T09:44:12;2.77;;;2.50;;
17872;SDS011;36318;42.620;23.338;2022-09-12T09:46:39;3.33;;;2.47;;
17872;SDS011;36318;42.620;23.338;2022-09-12T09:49:05;2.40;;;2.20;;
17872;SDS011;36318;42.620;23.338;2022-09-12T09:51:37;2.70;;;2.50;;
17872;SDS011;36318;42.620;23.338;2022-09-12T09:54:07;2.70;;;2.50;;
17872;SDS011;36318;42.620;23.338;2022-09-12T09:56:36;2.97;;;2.40;;
17872;SDS011;36318;42.620;23.338;2022-09-12T09:59:07;2.30;;;2.20;;
17872;SDS011;36318;42.620;23.338;2022-09-12T10:01:34;2.47;;;2.30;;
17872;SDS011;36318;42.620;23.338;2022-09-12T10:04:01;2.80;;;2.60;;
17872;SDS011;36318;42.620;23.338;2022-09-12T10:06:29;3.10;;;2.80;;
17872;SDS011;36318;42.620;23.338;2022-09-12T10:09:16;2.90;;;2.70;;
17872;SDS011;36318;42.620;23.338;2022-09-12T10:11:43;2.60;;;2.40;;
17872;SDS011;36318;42.620;23.338;2022-09-12T10:14:24;3.20;;;2.90;;
17872;SDS011;36318;42.620;23.338;2022-09-12T10:16:52;3.07;;;2.87;;
17872;SDS011;36318;42.620;23.338;2022-09-12T10:19:19;3.20;;;2.90;;
17872;SDS011;36318;42.620;23.338;2022-09-12T10:21:49;3.13;;;2.93;;
17872;SDS011;36318;42.620;23.338;2022-09-12T10:24:19;3.43;;;3.23;;
17872;SDS011;36318;42.620;23.338;2022-09-12T10:26:48;3.07;;;2.87;;
17872;SDS011;36318;42.620;23.338;2022-09-12T10:29:15;3.10;;;2.80;;
17872;SDS011;36318;42.620;23.338;2022-09-12T10:31:45;3.10;;;2.80;;
17872;SDS011;36318;42.620;23.338;2022-09-12T10:34:20;2.67;;;2.47;;
17872;SDS011;36318;42.620;23.338;2022-09-12T10:36:46;2.80;;;2.60;;
17872;SDS011;36318;42.620;23.338;2022-09-12T10:39:15;2.83;;;2.63;;
17872;SDS011;36318;42.620;23.338;2022-09-12T10:41:45;5.13;;;3.00;;
17872;SDS011;36318;42.620;23.338;2022-09-12T10:44:13;3.37;;;2.93;;
17872;SDS011;36318;42.620;23.338;2022-09-12T10:46:40;3.10;;;2.90;;
17872;SDS011;36318;42.620;23.338;2022-09-12T10:51:56;3.87;;;2.90;;
17872;SDS011;36318;42.620;23.338;2022-09-12T10:54:24;3.07;;;2.87;;
17872;SDS011;36318;42.620;23.338;2022-09-12T10:59:44;3.37;;;3.07;;
17872;SDS011;36318;42.620;23.338;2022-09-12T11:02:18;3.60;;;3.30;;
17872;SDS011;36318;42.620;23.338;2022-09-12T11:04:53;3.00;;;2.70;;
17872;SDS011;36318;42.620;23.338;2022-09-12T11:07:28;3.03;;;2.83;;
17872;SDS011;36318;42.620;23.338;2022-09-12T11:09:58;2.90;;;2.70;;
17872;SDS011;36318;42.620;23.338;2022-09-12T11:12:29;6.50;;;3.00;;
17872;SDS011;36318;42.620;23.338;2022-09-12T11:15:06;3.07;;;2.83;;
17872;SDS011;36318;42.620;23.338;2022-09-12T11:17:39;3.20;;;3.00;;
17872;SDS011;36318;42.620;23.338;2022-09-12T11:20:21;3.23;;;3.03;;
17872;SDS011;36318;42.620;23.338;2022-09-12T11:22:57;3.27;;;2.97;;
17872;SDS011;36318;42.620;23.338;2022-09-12T11:25:28;3.20;;;3.00;;
17872;SDS011;36318;42.620;23.338;2022-09-12T11:28:12;3.20;;;2.90;;
17872;SDS011;36318;42.620;23.338;2022-09-12T11:30:45;6.20;;;3.60;;
17872;SDS011;36318;42.620;23.338;2022-09-12T11:33:19;3.20;;;2.90;;
17872;SDS011;36318;42.620;23.338;2022-09-12T11:35:48;3.37;;;3.07;;
17872;SDS011;36318;42.620;23.338;2022-09-12T11:38:25;3.03;;;2.83;;
17872;SDS011;36318;42.620;23.338;2022-09-12T11:40:58;4.43;;;4.03;;
17872;SDS011;36318;42.620;23.338;2022-09-12T11:43:28;4.40;;;4.00;;
17872;SDS011;36318;42.620;23.338;2022-09-12T11:45:58;4.37;;;3.70;;
17872;SDS011;36318;42.620;23.338;2022-09-12T11:48:32;4.00;;;3.70;;
17872;SDS011;36318;42.620;23.338;2022-09-12T11:51:02;4.10;;;3.80;;
17872;SDS011;36318;42.620;23.338;2022-09-12T11:53:30;4.50;;;4.20;;
17872;SDS011;36318;42.620;23.338;2022-09-12T11:56:01;4.20;;;3.90;;
17872;SDS011;36318;42.620;23.338;2022-09-12T11:58:29;3.90;;;3.60;;
17872;SDS011;36318;42.620;23.338;2022-09-12T12:01:09;3.93;;;3.47;;
17872;SDS011;36318;42.620;23.338;2022-09-12T12:03:39;4.00;;;3.70;;
17872;SDS011;36318;42.620;23.338;2022-09-12T12:06:09;3.80;;;3.50;;
17872;SDS011;36318;42.620;23.338;2022-09-12T12:08:37;4.10;;;3.80;;
17872;SDS011;36318;42.620;23.338;2022-09-12T12:11:04;3.40;;;3.10;;
17872;SDS011;36318;42.620;23.338;2022-09-12T12:13:32;2.97;;;2.73;;
17872;SDS011;36318;42.620;23.338;2022-09-12T12:16:01;2.50;;;2.30;;
17872;SDS011;36318;42.620;23.338;2022-09-12T12:18:30;2.57;;;2.33;;
17872;SDS011;36318;42.620;23.338;2022-09-12T12:21:14;4.43;;;2.80;;
17872;SDS011;36318;42.620;23.338;2022-09-12T12:24:00;3.10;;;2.53;;
17872;SDS011;36318;42.620;23.338;2022-09-12T12:26:40;2.60;;;2.47;;
17872;SDS011;36318;42.620;23.338;2022-09-12T12:29:08;2.97;;;2.77;;
17872;SDS011;36318;42.620;23.338;2022-09-12T12:31:47;3.83;;;2.60;;
17872;SDS011;36318;42.620;23.338;2022-09-12T12:34:35;3.10;;;2.87;;
17872;SDS011;36318;42.620;23.338;2022-09-12T12:47:52;3.67;;;2.03;;
17872;SDS011;36318;42.620;23.338;2022-09-12T12:50:21;3.30;;;2.03;;
17872;SDS011;36318;42.620;23.338;2022-09-12T12:52:50;2.70;;;1.80;;
17872;SDS011;36318;42.620;23.338;2022-09-12T12:55:22;1.60;;;1.50;;
17872;SDS011;36318;42.620;23.338;2022-09-12T12:57:50;2.20;;;2.00;;
17872;SDS011;36318;42.620;23.338;2022-09-12T13:00:25;1.90;;;1.80;;
17872;SDS011;36318;42.620;23.338;2022-09-12T13:02:54;2.03;;;1.93;;
17872;SDS011;36318;42.620;23.338;2022-09-12T13:05:23;3.17;;;2.10;;
17872;SDS011;36318;42.620;23.338;2022-09-12T13:07:52;2.80;;;2.20;;
17872;SDS011;36318;42.620;23.338;2022-09-12T13:10:20;2.43;;;2.23;;
17872;SDS011;36318;42.620;23.338;2022-09-12T13:12:48;4.10;;;1.90;;
17872;SDS011;36318;42.620;23.338;2022-09-12T13:15:44;2.40;;;2.20;;
17872;SDS011;36318;42.620;23.338;2022-09-12T13:18:12;2.50;;;2.30;;
17872;SDS011;36318;42.620;23.338;2022-09-12T13:20:46;2.67;;;2.47;;
17872;SDS011;36318;42.620;23.338;2022-09-12T13:23:20;3.00;;;2.80;;
17872;SDS011;36318;42.620;23.338;2022-09-12T13:25:50;2.73;;;2.53;;
17872;SDS011;36318;42.620;23.338;2022-09-12T13:28:17;2.70;;;2.50;;
17872;SDS011;36318;42.620;23.338;2022-09-12T13:30:44;3.03;;;2.80;;
17872;SDS011;36318;42.620;23.338;2022-09-12T13:33:16;3.00;;;2.80;;
17872;SDS011;36318;42.620;23.338;2022-09-12T13:35:53;2.60;;;2.40;;
17872;SDS011;36318;42.620;23.338;2022-09-12T13:38:25;2.87;;;2.67;;
17872;SDS011;36318;42.620;23.338;2022-09-12T13:41:06;2.40;;;2.10;;
17872;SDS011;36318;42.620;23.338;2022-09-12T13:43:38;3.67;;;2.50;;
17872;SDS011;36318;42.620;23.338;2022-09-12T13:46:06;2.63;;;2.30;;
17872;SDS011;36318;42.620;23.338;2022-09-12T13:48:34;2.40;;;2.20;;
17872;SDS011;36318;42.620;23.338;2022-09-12T13:51:02;3.87;;;2.93;;
17872;SDS011;36318;42.620;23.338;2022-09-12T13:53:31;2.20;;;2.03;;
17872;SDS011;36318;42.620;23.338;2022-09-12T13:56:01;2.30;;;2.10;;
17872;SDS011;36318;42.620;23.338;2022-09-12T13:58:29;2.40;;;2.30;;
17872;SDS011;36318;42.620;23.338;2022-09-12T14:00:59;2.70;;;2.50;;
17872;SDS011;36318;42.620;23.338;2022-09-12T14:03:26;2.80;;;2.60;;
17872;SDS011;36318;42.620;23.338;2022-09-12T14:06:12;3.00;;;2.73;;
17872;SDS011;36318;42.620;23.338;2022-09-12T14:08:40;3.10;;;2.90;;
17872;SDS011;36318;42.620;23.338;2022-09-12T14:11:07;3.80;;;3.50;;
17872;SDS011;36318;42.620;23.338;2022-09-12T14:13:35;3.80;;;3.50;;
17872;SDS011;36318;42.620;23.338;2022-09-12T14:16:03;3.93;;;3.73;;
17872;SDS011;36318;42.620;23.338;2022-09-12T14:18:35;3.50;;;3.30;;
17872;SDS011;36318;42.620;23.338;2022-09-12T14:21:05;6.20;;;3.83;;
17872;SDS011;36318;42.620;23.338;2022-09-12T14:23:36;3.50;;;3.30;;
17872;SDS011;36318;42.620;23.338;2022-09-12T14:26:07;4.03;;;3.73;;
17872;SDS011;36318;42.620;23.338;2022-09-12T14:28:35;3.60;;;3.30;;
17872;SDS011;36318;42.620;23.338;2022-09-12T14:31:03;6.17;;;3.83;;
17872;SDS011;36318;42.620;23.338;2022-09-12T14:33:32;4.20;;;3.90;;
17872;SDS011;36318;42.620;23.338;2022-09-12T14:36:09;3.40;;;3.10;;
17872;SDS011;36318;42.620;23.338;2022-09-12T14:38:39;3.60;;;3.30;;
17872;SDS011;36318;42.620;23.338;2022-09-12T14:41:07;3.63;;;3.43;;
17872;SDS011;36318;42.620;23.338;2022-09-12T14:43:34;3.10;;;2.90;;
17872;SDS011;36318;42.620;23.338;2022-09-12T14:46:02;3.07;;;2.87;;
17872;SDS011;36318;42.620;23.338;2022-09-12T14:48:30;3.40;;;3.10;;
17872;SDS011;36318;42.620;23.338;2022-09-12T14:50:58;3.57;;;3.27;;
17872;SDS011;36318;42.620;23.338;2022-09-12T14:53:30;3.63;;;3.10;;
17872;SDS011;36318;42.620;23.338;2022-09-12T14:56:05;3.20;;;2.90;;
17872;SDS011;36318;42.620;23.338;2022-09-12T14:58:33;3.30;;;3.10;;
17872;SDS011;36318;42.620;23.338;2022-09-12T15:01:00;5.23;;;2.77;;
17872;SDS011;36318;42.620;23.338;2022-09-12T15:03:31;3.47;;;3.17;;
17872;SDS011;36318;42.620;23.338;2022-09-12T15:05:58;4.40;;;3.23;;
17872;SDS011;36318;42.620;23.338;2022-09-12T15:08:24;3.60;;;3.30;;